Time;durP1;ratioP1;P1;durP2;ratioP2;P2;SDS_P1;SDS_P2;PMS_P1;PMS_P2;Temp;Humidity;BMP_temperature;BMP_pressure;BME280_temperature;BME280_humidity;BME280_pressure;Samples;Min_cycle;Max_cycle;Signal;HPM_P1;HPM_P2
2023/04/22 00:01:51;;;;;;;9.70;6.17;;;13.40;60.10;;;;;;5051089;28;20194;-64
2023/04/22 00:04:16;;;;;;;8.53;6.03;;;13.40;60.10;;;;;;5044022;28;20680;-64
2023/04/22 00:06:42;;;;;;;6.37;5.77;;;13.40;60.20;;;;;;5048313;28;20316;-65
2023/04/22 00:09:07;;;;;;;7.37;5.63;;;13.40;60.30;;;;;;5049379;28;20565;-65
2023/04/22 00:11:33;;;;;;;10.70;6.40;;;13.40;60.40;;;;;;5049583;28;20202;-65
2023/04/22 00:13:58;;;;;;;10.03;6.13;;;13.40;60.50;;;;;;5049762;28;20552;-66
2023/04/22 00:16:26;;;;;;;6.37;5.73;;;13.40;60.30;;;;;;5047463;28;20216;-65
2023/04/22 00:18:51;;;;;;;7.57;5.07;;;13.30;60.50;;;;;;5044876;28;20209;-79
2023/04/22 00:21:17;;;;;;;6.53;5.93;;;13.30;60.30;;;;;;5048410;28;20202;-80
2023/04/22 00:23:44;;;;;;;7.57;5.37;;;13.30;60.70;;;;;;5048677;28;20217;-76
2023/04/22 00:26:10;;;;;;;6.33;5.60;;;13.20;60.60;;;;;;5046140;28;20205;-75
2023/04/22 00:28:35;;;;;;;6.20;5.60;;;13.10;61.60;;;;;;5049013;28;20207;-77
2023/04/22 00:31:03;;;;;;;6.03;5.53;;;13.10;61.90;;;;;;5049436;28;20289;-78
2023/04/22 00:33:29;;;;;;;8.17;5.57;;;13.00;61.50;;;;;;5049364;28;20229;-78
2023/04/22 00:35:54;;;;;;;13.20;5.77;;;12.90;61.80;;;;;;5048791;28;20233;-77
2023/04/22 00:38:20;;;;;;;6.87;5.87;;;12.80;62.70;;;;;;5049071;28;20201;-78
2023/04/22 00:40:46;;;;;;;6.90;5.50;;;12.70;63.20;;;;;;5046411;28;20202;-79
2023/04/22 00:43:12;;;;;;;6.87;6.20;;;12.60;63.60;;;;;;5048462;28;20186;-78
2023/04/22 00:45:38;;;;;;;9.73;6.03;;;12.60;63.70;;;;;;5047802;28;20202;-78
2023/04/22 00:48:04;;;;;;;6.73;5.70;;;12.70;63.70;;;;;;5048573;28;20213;-79
2023/04/22 00:50:30;;;;;;;8.40;5.23;;;12.60;63.80;;;;;;5048329;28;20219;-78
2023/04/22 00:52:55;;;;;;;5.90;5.30;;;12.50;64.30;;;;;;5048071;28;20679;-77
2023/04/22 00:55:21;;;;;;;6.93;4.80;;;12.50;64.30;;;;;;5050892;28;20217;-77
2023/04/22 00:57:49;;;;;;;8.73;6.30;;;12.40;64.70;;;;;;5043668;28;20688;-79
2023/04/22 01:00:16;;;;;;;6.13;5.53;;;12.40;65.50;;;;;;5047996;28;20248;-78
2023/04/22 01:02:41;;;;;;;7.37;5.87;;;12.30;65.80;;;;;;5048574;28;20615;-78
2023/04/22 01:05:08;;;;;;;6.67;5.37;;;12.20;66.30;;;;;;5048463;28;20664;-79
2023/04/22 01:07:35;;;;;;;8.80;6.53;;;12.20;66.90;;;;;;5045957;28;20202;-78
2023/04/22 01:10:01;;;;;;;8.17;5.90;;;12.30;66.40;;;;;;5047736;28;20202;-76
2023/04/22 01:12:26;;;;;;;9.43;6.27;;;12.20;66.30;;;;;;5047744;28;20212;-76
2023/04/22 01:14:52;;;;;;;7.03;5.90;;;12.30;66.70;;;;;;5047965;28;20207;-79
2023/04/22 01:17:18;;;;;;;10.53;5.60;;;12.30;66.90;;;;;;5047760;28;20517;-77
2023/04/22 01:19:44;;;;;;;7.37;6.23;;;12.20;66.70;;;;;;5046862;28;20336;-78
2023/04/22 01:22:12;;;;;;;9.40;6.43;;;12.20;67.30;;;;;;5039018;28;20726;-77
2023/04/22 01:24:38;;;;;;;6.53;5.83;;;12.00;67.60;;;;;;5049517;28;20200;-76
2023/04/22 01:27:04;;;;;;;6.80;5.63;;;12.00;68.00;;;;;;5047376;28;20838;-77
2023/04/22 01:29:29;;;;;;;6.67;5.97;;;12.00;68.70;;;;;;5047557;28;20178;-77
2023/04/22 01:31:55;;;;;;;7.00;5.50;;;12.00;68.70;;;;;;5046412;28;20263;-75
2023/04/22 01:34:21;;;;;;;7.17;5.97;;;12.10;69.30;;;;;;5046922;28;20202;-77
2023/04/22 01:36:47;;;;;;;7.37;5.70;;;12.00;69.40;;;;;;5047499;28;20546;-78
2023/04/22 01:39:12;;;;;;;7.40;6.33;;;12.00;69.70;;;;;;5047252;28;20206;-77
2023/04/22 01:41:38;;;;;;;8.83;5.33;;;12.00;68.80;;;;;;5042587;28;20205;-77
2023/04/22 01:44:04;;;;;;;7.20;6.07;;;11.90;69.20;;;;;;5045817;28;20225;-78
2023/04/22 01:46:29;;;;;;;10.47;5.80;;;11.90;69.40;;;;;;5038453;28;20187;-78
2023/04/22 01:48:55;;;;;;;7.13;6.13;;;11.80;70.30;;;;;;5047571;28;20198;-78
2023/04/22 01:51:20;;;;;;;9.07;6.50;;;11.80;70.00;;;;;;5047957;28;20204;-77
2023/04/22 01:53:47;;;;;;;7.30;5.83;;;11.80;70.40;;;;;;5047140;28;20683;-77
2023/04/22 01:56:12;;;;;;;7.70;6.13;;;11.70;70.60;;;;;;5044608;28;20214;-77
2023/04/22 01:58:39;;;;;;;7.20;6.50;;;11.60;71.20;;;;;;5046590;28;20255;-78
2023/04/22 02:01:05;;;;;;;9.20;6.00;;;11.70;71.20;;;;;;5048982;28;20277;-78
2023/04/22 02:03:31;;;;;;;6.70;5.43;;;11.70;71.40;;;;;;5044207;28;20202;-77
2023/04/22 02:05:56;;;;;;;7.83;6.20;;;11.80;71.20;;;;;;5044645;28;20232;-77
2023/04/22 02:08:22;;;;;;;8.67;6.10;;;11.80;70.70;;;;;;5046759;28;20574;-78
2023/04/22 02:10:47;;;;;;;7.33;6.27;;;11.80;71.10;;;;;;5044712;28;20203;-79
2023/04/22 02:13:13;;;;;;;9.23;6.07;;;11.90;70.80;;;;;;5047447;28;20202;-78
2023/04/22 02:15:40;;;;;;;8.60;6.30;;;11.80;71.10;;;;;;5049270;28;20654;-78
2023/04/22 02:18:05;;;;;;;7.07;4.93;;;11.80;71.70;;;;;;5045060;28;20302;-78
2023/04/22 02:20:31;;;;;;;10.77;6.10;;;11.70;71.70;;;;;;5045085;28;20632;-79
2023/04/22 02:22:57;;;;;;;7.83;5.97;;;11.60;71.90;;;;;;5052173;28;20250;-77
2023/04/22 02:25:22;;;;;;;9.40;6.83;;;11.60;72.20;;;;;;5056518;28;20571;-78
2023/04/22 02:27:47;;;;;;;7.37;6.30;;;11.60;72.60;;;;;;5056598;28;20783;-77
2023/04/22 02:30:13;;;;;;;9.43;6.27;;;11.70;72.40;;;;;;5056451;28;20209;-77
2023/04/22 02:32:39;;;;;;;7.47;6.37;;;11.60;73.10;;;;;;5039291;28;20271;-78
2023/04/22 02:35:05;;;;;;;7.33;6.20;;;11.60;72.90;;;;;;5044687;28;20265;-76
2023/04/22 02:37:30;;;;;;;7.57;5.43;;;11.70;72.60;;;;;;5046082;28;20195;-78
2023/04/22 02:39:56;;;;;;;11.53;6.43;;;11.60;72.90;;;;;;5048246;28;20259;-77
2023/04/22 02:42:22;;;;;;;6.77;5.63;;;11.60;73.20;;;;;;5046716;28;20195;-77
2023/04/22 02:44:47;;;;;;;9.00;6.67;;;11.50;73.70;;;;;;5046766;28;20674;-79
2023/04/22 02:47:13;;;;;;;6.70;6.00;;;11.50;73.90;;;;;;5048765;28;20243;-77
2023/04/22 02:49:38;;;;;;;7.70;5.30;;;11.50;73.40;;;;;;5046019;28;20756;-76
2023/04/22 02:52:04;;;;;;;6.80;6.20;;;11.50;73.80;;;;;;5046315;28;20201;-78
2023/04/22 02:54:30;;;;;;;7.73;6.47;;;11.50;74.20;;;;;;5045525;28;20668;-77
2023/04/22 02:56:56;;;;;;;7.70;6.13;;;11.40;75.20;;;;;;5044703;28;20696;-77
2023/04/22 02:59:22;;;;;;;9.20;6.40;;;11.40;75.10;;;;;;5046766;28;20610;-76
2023/04/22 03:01:47;;;;;;;11.47;6.73;;;11.30;75.20;;;;;;5046948;28;20209;-80
2023/04/22 03:04:14;;;;;;;10.57;6.43;;;11.30;75.70;;;;;;5048731;28;20198;-77
2023/04/22 03:06:39;;;;;;;5.87;5.27;;;11.40;75.40;;;;;;5045466;28;20251;-76
2023/04/22 03:09:05;;;;;;;6.73;5.93;;;11.40;75.70;;;;;;5044592;28;20560;-76
2023/04/22 03:11:31;;;;;;;7.07;6.37;;;11.40;75.40;;;;;;5043245;28;20198;-77
2023/04/22 03:13:56;;;;;;;7.40;6.10;;;11.30;76.00;;;;;;5044765;28;20195;-77
2023/04/22 03:16:25;;;;;;;7.47;6.30;;;11.20;76.50;;;;;;5045627;28;20215;-77
2023/04/22 03:18:50;;;;;;;10.00;6.73;;;11.20;76.50;;;;;;5041048;28;20206;-76
2023/04/22 03:21:16;;;;;;;9.27;6.50;;;11.10;77.10;;;;;;5052229;28;20203;-77
2023/04/22 03:23:41;;;;;;;6.83;6.17;;;11.10;77.40;;;;;;5054231;28;20251;-76
2023/04/22 03:26:07;;;;;;;7.53;6.43;;;11.10;77.70;;;;;;5050202;28;20202;-76
2023/04/22 03:28:32;;;;;;;7.33;6.27;;;11.00;77.90;;;;;;5053908;28;20213;-77
2023/04/22 03:30:58;;;;;;;6.83;5.87;;;11.00;79.20;;;;;;5059793;28;20999;-76
2023/04/22 03:33:24;;;;;;;6.37;5.67;;;10.80;79.70;;;;;;5059821;28;20214;-75
2023/04/22 03:35:49;;;;;;;7.07;6.40;;;10.70;80.40;;;;;;5057401;28;20225;-74
2023/04/22 03:38:15;;;;;;;7.17;6.17;;;10.90;80.70;;;;;;5059218;28;20201;-76
2023/04/22 03:40:42;;;;;;;8.47;6.43;;;10.90;80.30;;;;;;5076522;28;20202;-75
2023/04/22 03:43:07;;;;;;;6.83;6.13;;;10.90;81.50;;;;;;5073203;28;20669;-76
2023/04/22 03:45:33;;;;;;;8.10;6.47;;;10.80;81.20;;;;;;5067110;28;20202;-76
2023/04/22 03:47:59;;;;;;;7.03;6.33;;;10.80;81.20;;;;;;5062394;28;20238;-77
2023/04/22 03:50:24;;;;;;;7.80;6.87;;;10.80;81.70;;;;;;5063555;28;20229;-76
2023/04/22 03:52:50;;;;;;;8.10;6.67;;;10.80;81.60;;;;;;5063456;28;20206;-76
2023/04/22 03:55:15;;;;;;;8.77;6.77;;;10.90;82.10;;;;;;5066335;28;20297;-76
2023/04/22 03:57:41;;;;;;;7.07;6.40;;;10.90;81.60;;;;;;5060966;28;20245;-77
2023/04/22 04:00:07;;;;;;;7.93;6.83;;;10.90;81.70;;;;;;5060923;28;20194;-77
2023/04/22 04:02:32;;;;;;;8.93;6.30;;;10.70;82.70;;;;;;5054272;28;20700;-78
2023/04/22 04:04:57;;;;;;;8.30;6.63;;;10.70;83.20;;;;;;5059745;28;20215;-77
2023/04/22 04:07:23;;;;;;;7.70;6.60;;;10.80;82.70;;;;;;5054890;28;20200;-76
2023/04/22 04:09:48;;;;;;;6.77;6.03;;;10.80;82.80;;;;;;5050384;28;20208;-78
2023/04/22 04:12:14;;;;;;;8.50;7.23;;;10.80;82.60;;;;;;5052525;28;20202;-77
2023/04/22 04:14:39;;;;;;;7.33;6.43;;;10.80;83.00;;;;;;5050422;28;20207;-76
2023/04/22 04:17:08;;;;;;;8.57;7.23;;;10.90;83.00;;;;;;5045965;28;20303;-77
2023/04/22 04:19:35;;;;;;;8.07;7.27;;;10.90;82.60;;;;;;5051076;28;20201;-77
2023/04/22 04:22:01;;;;;;;10.93;7.50;;;10.90;82.90;;;;;;5051049;28;20199;-78
2023/04/22 04:24:27;;;;;;;8.77;6.93;;;10.80;84.30;;;;;;5049395;28;20207;-77
2023/04/22 04:26:52;;;;;;;7.07;6.30;;;10.80;84.30;;;;;;5055138;28;20654;-78
2023/04/22 04:29:22;;;;;;;11.17;7.00;;;10.80;84.70;;;;;;5045678;28;20239;-78
2023/04/22 04:31:48;;;;;;;8.83;6.57;;;10.70;85.40;;;;;;5051155;28;20204;-78
2023/04/22 04:34:13;;;;;;;7.80;6.97;;;10.70;85.90;;;;;;5050885;28;20275;-78
2023/04/22 04:36:39;;;;;;;7.97;6.57;;;10.70;86.20;;;;;;5049673;28;20226;-80
2023/04/22 04:39:05;;;;;;;7.27;6.57;;;10.80;86.30;;;;;;5054952;28;20295;-77
2023/04/22 04:41:32;;;;;;;11.23;7.33;;;10.80;86.10;;;;;;5055267;28;20276;-80
2023/04/22 04:43:59;;;;;;;9.80;6.83;;;10.80;86.30;;;;;;5063180;28;20223;-79
2023/04/22 04:46:25;;;;;;;14.80;7.23;;;10.80;86.40;;;;;;5062306;28;20231;-80
2023/04/22 04:48:52;;;;;;;13.37;7.50;;;10.90;86.10;;;;;;5066791;28;20806;-79
2023/04/22 04:51:18;;;;;;;8.97;6.63;;;10.90;86.50;;;;;;5065290;28;20203;-79
2023/04/22 04:53:44;;;;;;;9.03;7.37;;;10.90;86.40;;;;;;5069477;28;20203;-77
2023/04/22 04:56:09;;;;;;;13.63;7.27;;;10.90;86.20;;;;;;5062409;28;20202;-79
2023/04/22 04:58:35;;;;;;;8.00;7.20;;;10.90;86.60;;;;;;5059301;28;20204;-77
2023/04/22 05:01:00;;;;;;;9.40;7.17;;;10.90;87.00;;;;;;5058085;28;20204;-78
2023/04/22 05:03:26;;;;;;;10.10;7.03;;;10.90;87.00;;;;;;5044434;28;20217;-76
2023/04/22 05:05:51;;;;;;;9.90;6.80;;;10.90;87.40;;;;;;5050093;28;20605;-77
2023/04/22 05:08:17;;;;;;;10.33;7.00;;;11.00;87.00;;;;;;5060614;28;20272;-75
2023/04/22 05:10:43;;;;;;;8.67;7.37;;;11.00;86.70;;;;;;5063957;28;20294;-73
2023/04/22 05:13:09;;;;;;;9.30;7.73;;;11.10;86.80;;;;;;5066049;28;20207;-75
2023/04/22 05:15:35;;;;;;;11.83;6.80;;;11.10;87.20;;;;;;5068674;28;20225;-75
2023/04/22 05:18:01;;;;;;;9.67;6.50;;;11.10;87.30;;;;;;5067736;28;20191;-75
2023/04/22 05:20:26;;;;;;;8.53;7.57;;;11.10;87.60;;;;;;5066819;28;20212;-76
2023/04/22 05:22:52;;;;;;;8.07;7.10;;;11.20;87.60;;;;;;5063216;28;20200;-76
2023/04/22 05:25:17;;;;;;;9.33;7.40;;;11.20;87.00;;;;;;5061718;28;20277;-77
2023/04/22 05:27:43;;;;;;;8.93;7.30;;;11.20;86.90;;;;;;5056928;28;20212;-76
2023/04/22 05:30:09;;;;;;;9.70;7.63;;;11.30;86.70;;;;;;5059243;28;20712;-77
2023/04/22 05:32:34;;;;;;;9.10;7.80;;;11.40;87.30;;;;;;5061142;28;20221;-77
2023/04/22 05:35:00;;;;;;;9.67;7.43;;;11.40;86.20;;;;;;5057696;28;20232;-75
2023/04/22 05:37:25;;;;;;;10.30;7.17;;;11.50;86.40;;;;;;5048745;28;20201;-75
2023/04/22 05:39:51;;;;;;;8.83;7.13;;;11.50;86.40;;;;;;5052932;28;20195;-75
2023/04/22 05:42:16;;;;;;;10.10;7.60;;;11.60;86.00;;;;;;5052968;28;20201;-76
2023/04/22 05:44:42;;;;;;;10.43;7.77;;;11.70;86.20;;;;;;5057338;28;20197;-76
2023/04/22 05:47:07;;;;;;;10.03;7.20;;;11.70;85.80;;;;;;5059348;28;20266;-78
2023/04/22 05:49:33;;;;;;;9.03;7.70;;;11.80;85.40;;;;;;5062011;28;20658;-78
2023/04/22 05:51:58;;;;;;;13.57;7.67;;;11.90;85.40;;;;;;5056689;28;20197;-78
2023/04/22 05:54:24;;;;;;;8.27;6.73;;;11.90;85.20;;;;;;5057796;28;20223;-79
2023/04/22 05:56:50;;;;;;;8.53;7.30;;;12.00;84.30;;;;;;5053869;28;20218;-78
2023/04/22 05:59:15;;;;;;;11.10;8.37;;;12.10;83.50;;;;;;5064308;28;20224;-76
2023/04/22 06:01:41;;;;;;;8.37;7.30;;;12.10;83.50;;;;;;5061880;28;20199;-79
2023/04/22 06:04:08;;;;;;;10.33;7.97;;;12.20;83.60;;;;;;5063609;28;20285;-74
2023/04/22 06:06:34;;;;;;;9.57;7.67;;;12.30;82.60;;;;;;5061425;28;20206;-76
2023/04/22 06:09:00;;;;;;;10.53;7.67;;;12.30;82.60;;;;;;5070879;28;20204;-81
2023/04/22 06:11:25;;;;;;;8.37;7.57;;;12.40;82.70;;;;;;5060045;28;20205;-77
2023/04/22 06:13:51;;;;;;;7.77;7.07;;;12.50;82.80;;;;;;5059563;28;20230;-77
2023/04/22 06:16:17;;;;;;;8.53;6.97;;;12.60;82.50;;;;;;5061038;28;20239;-77
2023/04/22 06:18:43;;;;;;;9.10;8.13;;;12.70;82.30;;;;;;5057680;28;20313;-79
2023/04/22 06:21:08;;;;;;;8.73;7.83;;;12.80;82.20;;;;;;5053226;28;20280;-75
2023/04/22 06:23:34;;;;;;;8.33;6.83;;;12.90;82.00;;;;;;5051328;28;20205;-78
2023/04/22 06:26:00;;;;;;;11.40;8.03;;;13.00;81.50;;;;;;5057982;28;20214;-76
2023/04/22 06:28:26;;;;;;;11.17;7.33;;;13.10;80.70;;;;;;5052839;28;20224;-77
2023/04/22 06:30:52;;;;;;;10.70;6.93;;;13.20;79.90;;;;;;5048567;28;20202;-76
2023/04/22 06:33:17;;;;;;;8.87;7.97;;;13.20;80.50;;;;;;5043761;28;20213;-68
2023/04/22 06:35:42;;;;;;;8.80;7.93;;;13.20;79.60;;;;;;5048985;28;20218;-65
2023/04/22 06:38:08;;;;;;;10.93;7.90;;;13.30;80.40;;;;;;5043073;28;20222;-67
2023/04/22 06:40:34;;;;;;;9.43;8.23;;;13.40;79.80;;;;;;5051619;28;20743;-67
2023/04/22 06:42:59;;;;;;;8.93;7.80;;;13.50;79.90;;;;;;5046113;28;20195;-68
2023/04/22 06:45:25;;;;;;;10.47;7.63;;;13.60;79.20;;;;;;5043942;28;20850;-66
2023/04/22 06:47:53;;;;;;;12.00;7.27;;;13.70;79.30;;;;;;5045909;28;20296;-68
2023/04/22 06:50:19;;;;;;;9.33;7.73;;;13.80;78.50;;;;;;5044950;28;20198;-68
2023/04/22 06:52:45;;;;;;;8.73;7.77;;;13.80;78.20;;;;;;5045164;28;20208;-68
2023/04/22 06:55:11;;;;;;;10.90;8.07;;;13.80;78.60;;;;;;5044989;28;20347;-69
2023/04/22 06:57:36;;;;;;;10.47;7.53;;;13.90;78.70;;;;;;5044091;28;20199;-80
2023/04/22 07:00:04;;;;;;;9.33;8.17;;;14.00;78.00;;;;;;5056181;28;20595;-89
2023/04/22 07:02:29;;;;;;;9.67;8.53;;;14.10;77.80;;;;;;5061281;28;20240;-85
2023/04/22 07:04:55;;;;;;;10.13;8.23;;;14.20;77.20;;;;;;5058458;28;20809;-84
2023/04/22 07:07:21;;;;;;;8.60;7.53;;;14.20;77.70;;;;;;5051136;28;20203;-84
2023/04/22 07:09:46;;;;;;;10.63;8.17;;;14.40;77.30;;;;;;5061482;28;20209;-83
2023/04/22 07:12:11;;;;;;;9.40;7.87;;;14.40;76.60;;;;;;5058399;28;20717;-86
2023/04/22 07:14:41;;;;;;;15.40;7.53;;;14.50;77.20;;;;;;5062251;28;20209;-84
2023/04/22 07:17:06;;;;;;;8.40;7.27;;;14.60;77.10;;;;;;5064535;28;20557;-85
2023/04/22 07:19:32;;;;;;;9.30;7.20;;;14.70;76.80;;;;;;5056680;28;20221;-85
2023/04/22 07:21:57;;;;;;;9.00;7.27;;;14.80;75.00;;;;;;5059434;28;20590;-84
2023/04/22 07:24:23;;;;;;;11.10;8.37;;;14.90;74.50;;;;;;5052448;28;20665;-84
2023/04/22 07:26:48;;;;;;;10.20;7.20;;;14.80;73.80;;;;;;5059556;28;20211;-84
2023/04/22 07:29:14;;;;;;;9.23;7.37;;;14.80;74.80;;;;;;5063598;28;20198;-82
2023/04/22 07:31:39;;;;;;;9.30;7.67;;;14.90;74.80;;;;;;5053427;28;20309;-84
2023/04/22 07:34:05;;;;;;;8.10;7.10;;;15.00;74.20;;;;;;5055404;28;20207;-84
2023/04/22 07:36:33;;;;;;;9.53;7.97;;;15.10;75.20;;;;;;5051709;28;20714;-84
2023/04/22 07:38:59;;;;;;;8.03;7.23;;;15.30;75.00;;;;;;5049445;28;20206;-85
2023/04/22 07:41:25;;;;;;;8.93;6.90;;;15.40;74.50;;;;;;5053551;28;20259;-84
2023/04/22 07:43:50;;;;;;;9.23;7.90;;;15.50;73.30;;;;;;5049285;28;20432;-84
2023/04/22 07:46:16;;;;;;;8.10;7.30;;;15.60;73.50;;;;;;5057988;28;20199;-83
2023/04/22 07:48:42;;;;;;;12.77;7.13;;;15.70;73.30;;;;;;5053550;28;20206;-84
2023/04/22 07:51:12;;;;;;;8.93;6.63;;;15.80;73.00;;;;;;5060601;28;20193;-86
2023/04/22 07:53:38;;;;;;;9.57;7.13;;;15.90;73.20;;;;;;5058825;28;20652;-84
2023/04/22 07:56:04;;;;;;;9.93;7.63;;;16.10;73.80;;;;;;5053630;28;20604;-85
2023/04/22 07:58:29;;;;;;;10.57;7.43;;;16.20;73.00;;;;;;5063149;28;20197;-84
2023/04/22 08:00:54;;;;;;;8.53;6.97;;;16.30;71.80;;;;;;5053445;28;20198;-86
2023/04/22 08:03:21;;;;;;;8.60;7.80;;;16.40;72.10;;;;;;5052199;28;20395;-85
2023/04/22 08:05:47;;;;;;;10.47;6.93;;;16.50;70.60;;;;;;5057732;28;20234;-83
2023/04/22 08:08:12;;;;;;;10.63;7.83;;;16.50;71.40;;;;;;5052781;28;20211;-85
2023/04/22 08:10:38;;;;;;;11.70;7.40;;;16.60;70.00;;;;;;5066582;28;20255;-83
2023/04/22 08:13:03;;;;;;;7.53;6.73;;;16.70;69.20;;;;;;5059938;28;20246;-84
2023/04/22 08:15:29;;;;;;;7.97;6.67;;;16.80;68.40;;;;;;5046998;28;20704;-82
2023/04/22 08:17:55;;;;;;;8.83;6.90;;;16.80;68.60;;;;;;5058485;28;20285;-83
2023/04/22 08:20:20;;;;;;;8.00;6.87;;;16.90;69.20;;;;;;5056903;28;20887;-83
2023/04/22 08:22:46;;;;;;;9.07;6.77;;;17.00;69.90;;;;;;5054407;28;20191;-85
2023/04/22 08:25:11;;;;;;;10.83;6.77;;;17.10;67.90;;;;;;5051731;28;20199;-83
2023/04/22 08:27:37;;;;;;;9.50;6.47;;;17.10;67.40;;;;;;5054777;28;20728;-86
2023/04/22 08:30:05;;;;;;;9.67;7.03;;;17.10;68.60;;;;;;5050575;28;20210;-84
2023/04/22 08:32:30;;;;;;;16.53;8.63;;;17.30;67.70;;;;;;5050913;28;20211;-83
2023/04/22 08:34:55;;;;;;;8.63;7.17;;;17.40;66.90;;;;;;5047500;28;20272;-83
2023/04/22 08:37:21;;;;;;;7.47;6.70;;;17.50;66.20;;;;;;5053154;28;20249;-81
2023/04/22 08:39:46;;;;;;;6.63;6.03;;;17.60;67.10;;;;;;5058467;28;20194;-83
2023/04/22 08:42:12;;;;;;;7.73;6.63;;;17.70;65.60;;;;;;5055026;28;20188;-83
2023/04/22 08:44:38;;;;;;;7.60;6.87;;;17.70;66.10;;;;;;5055949;28;20566;-83
2023/04/22 08:47:04;;;;;;;11.00;6.67;;;17.80;65.00;;;;;;5064431;28;20230;-84
2023/04/22 08:49:30;;;;;;;6.93;5.70;;;17.80;64.20;;;;;;5058047;28;20672;-83
2023/04/22 08:51:56;;;;;;;8.33;5.80;;;17.90;65.10;;;;;;5052781;28;20256;-83
2023/04/22 08:54:24;;;;;;;12.40;5.97;;;18.00;65.30;;;;;;5051266;28;20202;-83
2023/04/22 08:56:50;;;;;;;6.03;5.53;;;18.10;65.10;;;;;;5046556;28;20274;-85
2023/04/22 08:59:17;;;;;;;10.07;6.73;;;18.20;64.30;;;;;;5051653;28;20587;-85
2023/04/22 09:01:44;;;;;;;9.53;6.90;;;18.30;64.50;;;;;;5056306;28;20225;-84
2023/04/22 09:04:11;;;;;;;6.63;5.90;;;18.30;64.00;;;;;;5060705;28;20197;-85
2023/04/22 09:06:37;;;;;;;6.23;5.63;;;18.30;64.70;;;;;;5047838;28;20685;-84
2023/04/22 09:09:03;;;;;;;9.60;5.53;;;18.40;64.10;;;;;;5056765;28;20206;-84
2023/04/22 09:11:31;;;;;;;8.13;6.37;;;18.40;63.20;;;;;;5057406;28;20193;-85
2023/04/22 09:13:56;;;;;;;9.57;6.07;;;18.50;64.00;;;;;;5056289;28;20209;-84
2023/04/22 09:16:22;;;;;;;8.77;5.73;;;18.60;64.10;;;;;;5055982;28;20212;-84
2023/04/22 09:18:49;;;;;;;9.47;5.50;;;18.70;63.20;;;;;;5057058;28;20199;-84
2023/04/22 09:21:14;;;;;;;7.40;5.70;;;18.60;62.80;;;;;;5056447;28;20203;-84
2023/04/22 09:23:49;;;;;;;7.37;5.60;;;18.70;63.20;;;;;;5060406;28;20701;-86
2023/04/22 09:26:17;;;;;;;11.07;5.60;;;18.80;62.90;;;;;;5059528;28;20193;-84
2023/04/22 09:28:59;;;;;;;8.63;6.07;;;18.90;62.50;;;;;;5051397;28;20202;-83
2023/04/22 09:31:27;;;;;;;7.40;5.30;;;19.00;63.50;;;;;;5063204;28;20206;-81
2023/04/22 09:33:55;;;;;;;7.83;6.30;;;19.20;62.10;;;;;;5051371;28;20279;-84
2023/04/22 09:36:22;;;;;;;9.77;5.77;;;19.20;62.00;;;;;;5050824;28;20222;-85
2023/04/22 09:38:52;;;;;;;6.13;5.53;;;19.30;61.90;;;;;;5048628;28;20198;-84
2023/04/22 09:41:25;;;;;;;6.07;5.47;;;19.30;61.70;;;;;;5061786;28;20195;-85
2023/04/22 09:43:50;;;;;;;9.77;5.47;;;19.40;61.70;;;;;;5050483;28;20209;-84
2023/04/22 09:46:16;;;;;;;8.80;5.70;;;19.50;61.70;;;;;;5062450;28;20205;-82
2023/04/22 09:48:42;;;;;;;8.07;5.83;;;19.60;61.50;;;;;;5057836;28;20200;-82
2023/04/22 09:51:15;;;;;;;6.03;4.67;;;19.60;59.60;;;;;;5060543;28;20217;-84
2023/04/22 09:53:41;;;;;;;8.43;5.30;;;19.60;61.80;;;;;;5044174;28;20677;-83
2023/04/22 09:56:07;;;;;;;10.87;6.20;;;19.80;59.50;;;;;;5050028;28;20211;-83
2023/04/22 09:58:38;;;;;;;6.67;5.33;;;19.70;59.30;;;;;;5050681;28;20196;-83
2023/04/22 10:01:04;;;;;;;7.23;6.00;;;19.90;60.60;;;;;;5046128;28;20390;-81
2023/04/22 10:03:30;;;;;;;9.27;5.93;;;20.10;58.80;;;;;;5057337;28;20192;-81
2023/04/22 10:05:56;;;;;;;5.10;4.60;;;20.20;58.70;;;;;;5051849;28;20206;-80
2023/04/22 10:08:22;;;;;;;6.83;5.23;;;20.30;58.20;;;;;;5054676;28;20231;-81
2023/04/22 10:10:48;;;;;;;12.03;5.77;;;20.40;59.00;;;;;;5052884;28;20539;-80
2023/04/22 10:13:13;;;;;;;6.17;5.40;;;20.20;57.80;;;;;;5052546;28;20206;-80
2023/04/22 10:15:46;;;;;;;7.70;5.30;;;20.30;59.50;;;;;;5056471;28;20718;-80
2023/04/22 10:18:17;;;;;;;7.60;5.37;;;20.30;59.00;;;;;;5053805;28;20756;-79
2023/04/22 10:20:44;;;;;;;9.00;4.83;;;20.20;57.90;;;;;;5052066;28;20210;-80
2023/04/22 10:23:19;;;;;;;8.67;5.20;;;20.40;56.90;;;;;;5056402;28;20203;-81
2023/04/22 10:25:50;;;;;;;7.20;5.37;;;20.50;57.30;;;;;;5056523;28;20236;-83
2023/04/22 10:28:16;;;;;;;7.23;4.67;;;20.60;57.20;;;;;;5047971;28;20229;-81
2023/04/22 10:30:42;;;;;;;8.50;5.60;;;20.80;57.10;;;;;;5055758;28;20212;-78
2023/04/22 10:33:22;;;;;;;5.93;4.57;;;20.90;58.40;;;;;;5056274;28;20213;-80
2023/04/22 10:36:07;;;;;;;9.57;5.47;;;21.00;55.10;;;;;;5056633;28;20282;-77
2023/04/22 10:38:37;;;;;;;7.10;4.67;;;21.00;54.00;;;;;;5051622;28;20280;-80
2023/04/22 10:41:03;;;;;;;8.70;4.67;;;21.20;53.00;;;;;;5056488;28;20243;-78
2023/04/22 10:43:46;;;;;;;7.93;4.47;;;21.20;53.80;;;;;;5051877;28;20594;-77
2023/04/22 10:46:36;;;;;;;8.00;4.90;;;21.40;56.40;;;;;;5055779;28;20206;-76
2023/04/22 10:49:17;;;;;;;4.67;4.20;;;21.60;52.70;;;;;;5055553;28;20208;-79
2023/04/22 10:51:48;;;;;;;9.83;4.73;;;21.70;52.50;;;;;;5056588;28;20749;-77
2023/04/22 10:54:35;;;;;;;7.20;5.77;;;21.80;50.10;;;;;;5054379;28;20484;-76
2023/04/22 10:57:08;;;;;;;7.97;4.57;;;21.80;48.30;;;;;;5053803;28;20218;-75
2023/04/22 10:59:41;;;;;;;7.60;5.13;;;21.80;49.90;;;;;;5055794;28;20744;-81
2023/04/22 11:02:08;;;;;;;5.90;4.47;;;21.90;49.60;;;;;;5056566;28;20201;-83
2023/04/22 11:04:34;;;;;;;5.57;4.90;;;22.00;50.00;;;;;;5056368;28;20244;-80
2023/04/22 11:07:30;;;;;;;7.47;5.00;;;21.90;47.60;;;;;;5046449;28;20205;-77
2023/04/22 11:10:06;;;;;;;7.50;4.97;;;22.10;48.20;;;;;;5047776;28;20210;-81
2023/04/22 11:12:37;;;;;;;7.90;4.73;;;22.10;47.90;;;;;;5060733;28;20230;-80
2023/04/22 11:15:13;;;;;;;8.00;5.00;;;22.20;50.00;;;;;;5054508;28;20251;-78
2023/04/22 11:17:42;;;;;;;5.23;4.63;;;22.30;48.10;;;;;;5053892;28;20524;-78
2023/04/22 11:20:08;;;;;;;6.87;5.20;;;22.70;48.80;;;;;;5055284;28;20209;-76
2023/04/22 11:22:40;;;;;;;5.50;4.33;;;22.80;48.30;;;;;;5055453;28;20201;-80
2023/04/22 11:25:08;;;;;;;8.77;5.67;;;23.00;49.60;;;;;;5044255;28;20693;-81
2023/04/22 11:27:34;;;;;;;5.20;4.70;;;23.30;48.40;;;;;;5050728;28;20354;-79
2023/04/22 11:30:06;;;;;;;8.03;5.33;;;23.50;48.90;;;;;;5050540;28;20296;-76
2023/04/22 11:32:36;;;;;;;6.57;4.97;;;23.60;48.00;;;;;;5042566;28;20238;-83
2023/04/22 11:35:04;;;;;;;5.53;4.73;;;23.60;48.50;;;;;;5039265;28;20708;-78
2023/04/22 11:37:30;;;;;;;6.50;4.93;;;23.80;46.80;;;;;;5034501;28;20707;-80
2023/04/22 11:40:03;;;;;;;6.90;4.97;;;23.90;47.50;;;;;;5037289;28;20666;-79
2023/04/22 11:42:28;;;;;;;8.30;4.73;;;24.10;45.80;;;;;;5055215;28;20205;-79
2023/04/22 11:44:54;;;;;;;8.10;4.82;;;24.40;47.60;;;;;;5058755;28;22403;-81
2023/04/22 11:47:20;;;;;;;8.73;5.05;;;24.50;46.10;;;;;;5060039;28;20289;-83
2023/04/22 11:50:00;;;;;;;5.78;5.18;;;25.00;45.60;;;;;;5058237;28;20271;-78
2023/04/22 11:52:44;;;;;;;5.43;4.57;;;25.40;46.10;;;;;;5043078;28;20305;-77
2023/04/22 11:55:11;;;;;;;6.05;5.45;;;25.60;43.40;;;;;;5040509;28;20470;-80
2023/04/22 11:57:37;;;;;;;6.05;4.30;;;25.60;43.80;;;;;;5044001;28;20202;-80
2023/04/22 12:00:03;;;;;;;5.93;4.63;;;25.00;44.20;;;;;;5043328;28;20558;-78
2023/04/22 12:02:28;;;;;;;7.85;4.53;;;25.20;42.70;;;;;;5046090;28;20270;-80
2023/04/22 12:04:57;;;;;;;5.13;4.20;;;25.50;42.30;;;;;;5040916;28;20661;-81
2023/04/22 12:07:26;;;;;;;6.07;5.05;;;25.80;41.20;;;;;;5046856;28;20285;-85
2023/04/22 12:09:55;;;;;;;6.00;4.38;;;26.00;40.70;;;;;;5043827;28;20199;-82
2023/04/22 12:12:26;;;;;;;4.63;4.22;;;26.20;40.80;;;;;;5041905;28;20217;-82
2023/04/22 12:14:52;;;;;;;5.05;4.40;;;26.60;39.90;;;;;;5039496;28;20210;-82
2023/04/22 12:17:24;;;;;;;5.13;4.63;;;26.80;40.80;;;;;;5040609;28;20194;-82
2023/04/22 12:19:54;;;;;;;5.85;4.00;;;27.10;40.00;;;;;;5040825;28;20199;-83
2023/04/22 12:22:28;;;;;;;5.68;5.03;;;27.40;38.50;;;;;;5043042;28;20198;-82
2023/04/22 12:24:57;;;;;;;4.93;4.43;;;28.00;38.20;;;;;;5041606;28;20280;-83
2023/04/22 12:27:23;;;;;;;5.75;4.38;;;28.00;37.00;;;;;;5044670;28;20201;-83
2023/04/22 12:29:55;;;;;;;5.68;4.55;;;27.70;38.10;;;;;;5041629;28;20201;-81
2023/04/22 12:32:22;;;;;;;5.78;4.00;;;28.10;37.40;;;;;;5043313;28;20346;-82
2023/04/22 12:34:48;;;;;;;5.47;4.97;;;28.10;36.40;;;;;;5039055;28;20197;-81
2023/04/22 12:37:14;;;;;;;4.45;4.03;;;27.90;36.40;;;;;;5042824;28;20251;-82
2023/04/22 12:39:40;;;;;;;5.15;4.20;;;28.20;36.40;;;;;;5039296;28;20565;-80
2023/04/22 12:42:06;;;;;;;5.60;4.30;;;28.30;35.10;;;;;;5053185;28;20201;-82
2023/04/22 12:44:32;;;;;;;8.60;4.65;;;28.30;35.40;;;;;;5053586;28;20203;-83